sensor_id;sensor_type;location;lat;lon;timestamp;P1;durP1;ratioP1;P2;durP2;ratioP2
1509;SDS011;746;48.688;9.428;2022-11-25T00:02:01;23.03;;;17.23;;
1509;SDS011;746;48.688;9.428;2022-11-25T00:04:23;25.63;;;16.77;;
1509;SDS011;746;48.688;9.428;2022-11-25T00:06:44;25.40;;;16.93;;
1509;SDS011;746;48.688;9.428;2022-11-25T00:09:07;21.57;;;16.73;;
1509;SDS011;746;48.688;9.428;2022-11-25T00:11:29;25.93;;;17.67;;
1509;SDS011;746;48.688;9.428;2022-11-25T00:13:50;24.03;;;16.90;;
1509;SDS011;746;48.688;9.428;2022-11-25T00:16:12;21.30;;;16.80;;
1509;SDS011;746;48.688;9.428;2022-11-25T00:18:34;22.07;;;16.83;;
1509;SDS011;746;48.688;9.428;2022-11-25T00:20:56;25.53;;;16.87;;
1509;SDS011;746;48.688;9.428;2022-11-25T00:23:18;19.60;;;15.17;;
1509;SDS011;746;48.688;9.428;2022-11-25T00:25:39;21.80;;;16.10;;
1509;SDS011;746;48.688;9.428;2022-11-25T00:28:00;23.60;;;16.70;;
1509;SDS011;746;48.688;9.428;2022-11-25T00:30:22;20.00;;;16.83;;
1509;SDS011;746;48.688;9.428;2022-11-25T00:32:43;21.23;;;16.30;;
1509;SDS011;746;48.688;9.428;2022-11-25T00:35:04;22.50;;;16.60;;
1509;SDS011;746;48.688;9.428;2022-11-25T00:37:27;20.20;;;16.70;;
1509;SDS011;746;48.688;9.428;2022-11-25T00:39:49;21.00;;;15.80;;
1509;SDS011;746;48.688;9.428;2022-11-25T00:42:10;21.23;;;15.20;;
1509;SDS011;746;48.688;9.428;2022-11-25T00:44:48;19.27;;;14.73;;
1509;SDS011;746;48.688;9.428;2022-11-25T00:47:09;21.53;;;14.40;;
1509;SDS011;746;48.688;9.428;2022-11-25T00:49:30;26.30;;;17.10;;
1509;SDS011;746;48.688;9.428;2022-11-25T00:51:52;18.03;;;14.87;;
1509;SDS011;746;48.688;9.428;2022-11-25T00:54:15;23.67;;;16.40;;
1509;SDS011;746;48.688;9.428;2022-11-25T00:56:36;21.23;;;16.30;;
1509;SDS011;746;48.688;9.428;2022-11-25T00:58:57;20.23;;;15.57;;
1509;SDS011;746;48.688;9.428;2022-11-25T01:01:18;21.33;;;14.93;;
1509;SDS011;746;48.688;9.428;2022-11-25T01:03:40;22.20;;;15.77;;
1509;SDS011;746;48.688;9.428;2022-11-25T01:06:02;21.63;;;15.53;;
1509;SDS011;746;48.688;9.428;2022-11-25T01:08:23;19.27;;;14.77;;
1509;SDS011;746;48.688;9.428;2022-11-25T01:10:46;20.27;;;14.77;;
1509;SDS011;746;48.688;9.428;2022-11-25T01:13:07;18.67;;;14.20;;
1509;SDS011;746;48.688;9.428;2022-11-25T01:15:28;19.80;;;14.47;;
1509;SDS011;746;48.688;9.428;2022-11-25T01:17:49;21.13;;;14.50;;
1509;SDS011;746;48.688;9.428;2022-11-25T01:20:11;17.67;;;14.80;;
1509;SDS011;746;48.688;9.428;2022-11-25T01:22:32;19.70;;;14.83;;
1509;SDS011;746;48.688;9.428;2022-11-25T01:24:53;22.73;;;15.13;;
1509;SDS011;746;48.688;9.428;2022-11-25T01:27:16;21.07;;;15.60;;
1509;SDS011;746;48.688;9.428;2022-11-25T01:29:37;22.27;;;15.40;;
1509;SDS011;746;48.688;9.428;2022-11-25T01:32:00;21.43;;;14.70;;
1509;SDS011;746;48.688;9.428;2022-11-25T01:34:23;25.17;;;15.10;;
1509;SDS011;746;48.688;9.428;2022-11-25T01:36:45;22.77;;;15.27;;
1509;SDS011;746;48.688;9.428;2022-11-25T01:39:06;24.73;;;16.17;;
1509;SDS011;746;48.688;9.428;2022-11-25T01:41:28;21.10;;;15.47;;
1509;SDS011;746;48.688;9.428;2022-11-25T01:44:08;21.07;;;15.90;;
1509;SDS011;746;48.688;9.428;2022-11-25T01:46:30;23.63;;;16.47;;
1509;SDS011;746;48.688;9.428;2022-11-25T01:48:55;22.20;;;15.53;;
1509;SDS011;746;48.688;9.428;2022-11-25T01:51:17;21.10;;;15.90;;
1509;SDS011;746;48.688;9.428;2022-11-25T01:53:41;19.10;;;15.53;;
1509;SDS011;746;48.688;9.428;2022-11-25T01:56:03;21.83;;;15.80;;
1509;SDS011;746;48.688;9.428;2022-11-25T01:58:24;20.97;;;15.70;;
1509;SDS011;746;48.688;9.428;2022-11-25T02:00:48;17.87;;;14.97;;
1509;SDS011;746;48.688;9.428;2022-11-25T02:03:10;18.03;;;14.47;;
1509;SDS011;746;48.688;9.428;2022-11-25T02:05:34;18.37;;;14.27;;
1509;SDS011;746;48.688;9.428;2022-11-25T02:07:56;17.27;;;13.93;;
1509;SDS011;746;48.688;9.428;2022-11-25T02:10:19;17.67;;;14.03;;
1509;SDS011;746;48.688;9.428;2022-11-25T02:12:42;20.40;;;14.50;;
1509;SDS011;746;48.688;9.428;2022-11-25T02:15:05;19.23;;;13.10;;
1509;SDS011;746;48.688;9.428;2022-11-25T02:17:27;19.57;;;14.70;;
1509;SDS011;746;48.688;9.428;2022-11-25T02:19:52;20.20;;;15.43;;
1509;SDS011;746;48.688;9.428;2022-11-25T02:22:18;17.60;;;14.30;;
1509;SDS011;746;48.688;9.428;2022-11-25T02:24:42;19.17;;;15.27;;
1509;SDS011;746;48.688;9.428;2022-11-25T02:27:06;22.00;;;14.80;;
1509;SDS011;746;48.688;9.428;2022-11-25T02:29:27;20.93;;;14.50;;
1509;SDS011;746;48.688;9.428;2022-11-25T02:31:48;21.77;;;14.57;;
1509;SDS011;746;48.688;9.428;2022-11-25T02:34:10;19.03;;;14.50;;
1509;SDS011;746;48.688;9.428;2022-11-25T02:36:31;17.23;;;13.23;;
1509;SDS011;746;48.688;9.428;2022-11-25T02:38:53;15.70;;;14.00;;
1509;SDS011;746;48.688;9.428;2022-11-25T02:41:16;16.60;;;13.83;;
1509;SDS011;746;48.688;9.428;2022-11-25T02:43:40;16.40;;;13.23;;
1509;SDS011;746;48.688;9.428;2022-11-25T02:46:02;14.97;;;13.37;;
1509;SDS011;746;48.688;9.428;2022-11-25T02:48:24;15.17;;;13.10;;
1509;SDS011;746;48.688;9.428;2022-11-25T02:51:06;18.33;;;12.43;;
1509;SDS011;746;48.688;9.428;2022-11-25T02:53:27;13.67;;;12.00;;
1509;SDS011;746;48.688;9.428;2022-11-25T02:55:48;16.33;;;12.63;;
1509;SDS011;746;48.688;9.428;2022-11-25T02:58:10;15.70;;;13.07;;
1509;SDS011;746;48.688;9.428;2022-11-25T03:00:32;16.03;;;13.10;;
1509;SDS011;746;48.688;9.428;2022-11-25T03:02:53;13.90;;;12.23;;
1509;SDS011;746;48.688;9.428;2022-11-25T03:05:15;18.53;;;13.10;;
1509;SDS011;746;48.688;9.428;2022-11-25T03:07:36;14.20;;;11.73;;
1509;SDS011;746;48.688;9.428;2022-11-25T03:09:58;12.80;;;11.33;;
1509;SDS011;746;48.688;9.428;2022-11-25T03:12:19;14.00;;;12.47;;
1509;SDS011;746;48.688;9.428;2022-11-25T03:14:40;15.00;;;13.17;;
1509;SDS011;746;48.688;9.428;2022-11-25T03:17:03;17.27;;;12.97;;
1509;SDS011;746;48.688;9.428;2022-11-25T03:19:24;19.17;;;12.77;;
1509;SDS011;746;48.688;9.428;2022-11-25T03:21:45;16.10;;;12.53;;
1509;SDS011;746;48.688;9.428;2022-11-25T03:24:07;16.63;;;12.93;;
1509;SDS011;746;48.688;9.428;2022-11-25T03:26:28;22.07;;;13.33;;
1509;SDS011;746;48.688;9.428;2022-11-25T03:28:49;17.93;;;13.20;;
1509;SDS011;746;48.688;9.428;2022-11-25T03:31:10;16.03;;;12.30;;
1509;SDS011;746;48.688;9.428;2022-11-25T03:33:33;17.37;;;12.73;;
1509;SDS011;746;48.688;9.428;2022-11-25T03:35:54;16.77;;;12.20;;
1509;SDS011;746;48.688;9.428;2022-11-25T03:38:15;17.90;;;12.83;;
1509;SDS011;746;48.688;9.428;2022-11-25T03:40:36;16.50;;;12.63;;
1509;SDS011;746;48.688;9.428;2022-11-25T03:42:58;18.43;;;13.90;;
1509;SDS011;746;48.688;9.428;2022-11-25T03:45:19;19.50;;;14.30;;
1509;SDS011;746;48.688;9.428;2022-11-25T03:47:41;20.90;;;15.20;;
1509;SDS011;746;48.688;9.428;2022-11-25T03:50:04;20.17;;;14.63;;
1509;SDS011;746;48.688;9.428;2022-11-25T03:52:26;22.10;;;15.30;;
1509;SDS011;746;48.688;9.428;2022-11-25T03:54:47;16.33;;;13.67;;
1509;SDS011;746;48.688;9.428;2022-11-25T03:57:09;19.77;;;13.77;;
1509;SDS011;746;48.688;9.428;2022-11-25T03:59:30;19.60;;;13.73;;
1509;SDS011;746;48.688;9.428;2022-11-25T04:01:52;17.27;;;13.17;;
1509;SDS011;746;48.688;9.428;2022-11-25T04:04:14;16.40;;;13.57;;
1509;SDS011;746;48.688;9.428;2022-11-25T04:06:36;15.40;;;12.87;;
1509;SDS011;746;48.688;9.428;2022-11-25T04:08:58;17.83;;;13.13;;
1509;SDS011;746;48.688;9.428;2022-11-25T04:11:20;16.33;;;13.40;;
1509;SDS011;746;48.688;9.428;2022-11-25T04:14:01;13.90;;;12.50;;
1509;SDS011;746;48.688;9.428;2022-11-25T04:16:22;16.10;;;12.10;;
1509;SDS011;746;48.688;9.428;2022-11-25T04:18:44;16.27;;;13.20;;
1509;SDS011;746;48.688;9.428;2022-11-25T04:21:05;15.80;;;12.50;;
1509;SDS011;746;48.688;9.428;2022-11-25T04:23:28;20.07;;;13.20;;
1509;SDS011;746;48.688;9.428;2022-11-25T04:25:49;13.63;;;12.17;;
1509;SDS011;746;48.688;9.428;2022-11-25T04:28:10;15.13;;;11.50;;
1509;SDS011;746;48.688;9.428;2022-11-25T04:30:32;14.27;;;12.67;;
1509;SDS011;746;48.688;9.428;2022-11-25T04:32:53;12.60;;;11.23;;
1509;SDS011;746;48.688;9.428;2022-11-25T04:35:15;14.40;;;11.80;;
1509;SDS011;746;48.688;9.428;2022-11-25T04:37:36;14.40;;;11.57;;
1509;SDS011;746;48.688;9.428;2022-11-25T04:39:58;14.87;;;11.80;;
1509;SDS011;746;48.688;9.428;2022-11-25T04:42:20;17.00;;;12.43;;
1509;SDS011;746;48.688;9.428;2022-11-25T04:44:55;15.33;;;11.57;;
1509;SDS011;746;48.688;9.428;2022-11-25T04:47:36;13.90;;;12.30;;
1509;SDS011;746;48.688;9.428;2022-11-25T04:49:58;21.13;;;16.03;;
1509;SDS011;746;48.688;9.428;2022-11-25T04:52:19;15.77;;;11.80;;
1509;SDS011;746;48.688;9.428;2022-11-25T04:54:40;15.33;;;13.13;;
1509;SDS011;746;48.688;9.428;2022-11-25T04:57:03;15.00;;;12.27;;
1509;SDS011;746;48.688;9.428;2022-11-25T04:59:24;16.07;;;11.93;;
1509;SDS011;746;48.688;9.428;2022-11-25T05:01:59;14.50;;;12.20;;
1509;SDS011;746;48.688;9.428;2022-11-25T05:04:20;13.83;;;11.47;;
1509;SDS011;746;48.688;9.428;2022-11-25T05:06:41;13.00;;;11.33;;
1509;SDS011;746;48.688;9.428;2022-11-25T05:09:03;16.73;;;11.40;;
1509;SDS011;746;48.688;9.428;2022-11-25T05:11:24;14.57;;;11.47;;
1509;SDS011;746;48.688;9.428;2022-11-25T05:13:46;13.03;;;11.17;;
1509;SDS011;746;48.688;9.428;2022-11-25T05:16:08;12.67;;;10.90;;
1509;SDS011;746;48.688;9.428;2022-11-25T05:18:29;14.57;;;10.67;;
1509;SDS011;746;48.688;9.428;2022-11-25T05:20:50;14.10;;;11.20;;
1509;SDS011;746;48.688;9.428;2022-11-25T05:23:11;12.87;;;10.70;;
1509;SDS011;746;48.688;9.428;2022-11-25T05:25:33;14.63;;;10.63;;
1509;SDS011;746;48.688;9.428;2022-11-25T05:27:54;15.77;;;11.30;;
1509;SDS011;746;48.688;9.428;2022-11-25T05:30:17;13.07;;;10.43;;
1509;SDS011;746;48.688;9.428;2022-11-25T05:32:38;11.17;;;9.93;;
1509;SDS011;746;48.688;9.428;2022-11-25T05:34:59;12.37;;;10.30;;
1509;SDS011;746;48.688;9.428;2022-11-25T05:37:21;14.30;;;11.00;;
1509;SDS011;746;48.688;9.428;2022-11-25T05:39:43;13.13;;;10.73;;
1509;SDS011;746;48.688;9.428;2022-11-25T05:42:04;13.83;;;10.40;;
1509;SDS011;746;48.688;9.428;2022-11-25T05:44:26;13.00;;;10.53;;
1509;SDS011;746;48.688;9.428;2022-11-25T05:46:48;11.80;;;9.90;;
1509;SDS011;746;48.688;9.428;2022-11-25T05:49:10;13.07;;;9.60;;
1509;SDS011;746;48.688;9.428;2022-11-25T05:51:31;15.03;;;9.87;;
1509;SDS011;746;48.688;9.428;2022-11-25T05:53:52;17.13;;;10.40;;
1509;SDS011;746;48.688;9.428;2022-11-25T05:56:13;10.70;;;9.37;;
1509;SDS011;746;48.688;9.428;2022-11-25T05:58:34;13.63;;;10.43;;
1509;SDS011;746;48.688;9.428;2022-11-25T06:00:56;13.17;;;9.50;;
1509;SDS011;746;48.688;9.428;2022-11-25T06:03:18;11.73;;;9.47;;
1509;SDS011;746;48.688;9.428;2022-11-25T06:05:39;14.97;;;10.43;;
1509;SDS011;746;48.688;9.428;2022-11-25T06:08:01;16.13;;;11.27;;
1509;SDS011;746;48.688;9.428;2022-11-25T06:10:22;14.63;;;11.77;;
1509;SDS011;746;48.688;9.428;2022-11-25T06:12:44;15.93;;;11.87;;
1509;SDS011;746;48.688;9.428;2022-11-25T06:15:05;13.50;;;10.47;;
1509;SDS011;746;48.688;9.428;2022-11-25T06:17:27;13.03;;;10.57;;
1509;SDS011;746;48.688;9.428;2022-11-25T06:19:49;11.43;;;10.03;;
1509;SDS011;746;48.688;9.428;2022-11-25T06:22:11;14.40;;;11.30;;
1509;SDS011;746;48.688;9.428;2022-11-25T06:24:32;13.20;;;10.80;;
1509;SDS011;746;48.688;9.428;2022-11-25T06:26:54;13.43;;;10.77;;
1509;SDS011;746;48.688;9.428;2022-11-25T06:29:15;14.93;;;11.67;;
1509;SDS011;746;48.688;9.428;2022-11-25T06:31:37;17.10;;;11.67;;
1509;SDS011;746;48.688;9.428;2022-11-25T06:33:58;16.00;;;10.67;;
1509;SDS011;746;48.688;9.428;2022-11-25T06:36:21;12.37;;;10.60;;
1509;SDS011;746;48.688;9.428;2022-11-25T06:38:42;16.13;;;11.60;;
1509;SDS011;746;48.688;9.428;2022-11-25T06:41:04;15.13;;;11.27;;
1509;SDS011;746;48.688;9.428;2022-11-25T06:43:25;15.30;;;11.93;;
1509;SDS011;746;48.688;9.428;2022-11-25T06:45:46;16.17;;;12.40;;
1509;SDS011;746;48.688;9.428;2022-11-25T06:48:08;17.37;;;12.50;;
1509;SDS011;746;48.688;9.428;2022-11-25T06:50:29;14.77;;;11.23;;
1509;SDS011;746;48.688;9.428;2022-11-25T06:52:52;13.80;;;10.73;;
1509;SDS011;746;48.688;9.428;2022-11-25T06:55:13;13.77;;;10.60;;
1509;SDS011;746;48.688;9.428;2022-11-25T06:57:35;11.90;;;10.00;;
1509;SDS011;746;48.688;9.428;2022-11-25T06:59:56;17.00;;;10.03;;
1509;SDS011;746;48.688;9.428;2022-11-25T07:02:17;12.63;;;10.07;;
1509;SDS011;746;48.688;9.428;2022-11-25T07:04:38;12.40;;;10.27;;
1509;SDS011;746;48.688;9.428;2022-11-25T07:07:00;13.33;;;10.07;;
1509;SDS011;746;48.688;9.428;2022-11-25T07:09:22;13.77;;;9.77;;
1509;SDS011;746;48.688;9.428;2022-11-25T07:11:44;14.47;;;10.07;;
1509;SDS011;746;48.688;9.428;2022-11-25T07:14:06;13.43;;;10.50;;
1509;SDS011;746;48.688;9.428;2022-11-25T07:16:27;15.80;;;10.70;;
1509;SDS011;746;48.688;9.428;2022-11-25T07:18:49;16.07;;;11.03;;
1509;SDS011;746;48.688;9.428;2022-11-25T07:21:11;12.60;;;10.40;;
1509;SDS011;746;48.688;9.428;2022-11-25T07:23:34;14.30;;;11.13;;
1509;SDS011;746;48.688;9.428;2022-11-25T07:26:01;14.57;;;11.10;;
1509;SDS011;746;48.688;9.428;2022-11-25T07:28:22;12.93;;;10.93;;
1509;SDS011;746;48.688;9.428;2022-11-25T07:30:43;15.53;;;10.13;;
1509;SDS011;746;48.688;9.428;2022-11-25T07:33:24;14.03;;;11.43;;
1509;SDS011;746;48.688;9.428;2022-11-25T07:35:45;13.20;;;10.67;;
1509;SDS011;746;48.688;9.428;2022-11-25T07:38:07;13.70;;;10.67;;
1509;SDS011;746;48.688;9.428;2022-11-25T07:40:28;13.37;;;9.53;;
1509;SDS011;746;48.688;9.428;2022-11-25T07:42:51;13.13;;;9.93;;
1509;SDS011;746;48.688;9.428;2022-11-25T07:45:12;13.47;;;9.57;;
1509;SDS011;746;48.688;9.428;2022-11-25T07:47:33;11.83;;;10.10;;
1509;SDS011;746;48.688;9.428;2022-11-25T07:49:55;14.07;;;10.47;;
1509;SDS011;746;48.688;9.428;2022-11-25T07:52:16;11.23;;;9.67;;
1509;SDS011;746;48.688;9.428;2022-11-25T07:54:39;12.27;;;8.97;;
1509;SDS011;746;48.688;9.428;2022-11-25T07:57:00;13.63;;;9.60;;
1509;SDS011;746;48.688;9.428;2022-11-25T07:59:23;11.50;;;9.33;;
1509;SDS011;746;48.688;9.428;2022-11-25T08:01:44;11.03;;;8.80;;
1509;SDS011;746;48.688;9.428;2022-11-25T08:04:06;11.60;;;8.57;;
1509;SDS011;746;48.688;9.428;2022-11-25T08:06:27;12.50;;;9.47;;
1509;SDS011;746;48.688;9.428;2022-11-25T08:08:49;15.63;;;10.87;;
1509;SDS011;746;48.688;9.428;2022-11-25T08:11:13;15.93;;;13.17;;
1509;SDS011;746;48.688;9.428;2022-11-25T08:13:34;16.90;;;14.50;;
1509;SDS011;746;48.688;9.428;2022-11-25T08:15:58;20.87;;;13.77;;
1509;SDS011;746;48.688;9.428;2022-11-25T08:18:20;17.17;;;13.23;;
1509;SDS011;746;48.688;9.428;2022-11-25T08:20:41;17.17;;;13.63;;
1509;SDS011;746;48.688;9.428;2022-11-25T08:23:02;16.70;;;12.97;;
1509;SDS011;746;48.688;9.428;2022-11-25T08:25:24;16.60;;;13.47;;
1509;SDS011;746;48.688;9.428;2022-11-25T08:27:45;18.40;;;14.20;;
1509;SDS011;746;48.688;9.428;2022-11-25T08:30:07;22.00;;;14.83;;
1509;SDS011;746;48.688;9.428;2022-11-25T08:32:30;17.27;;;13.23;;
1509;SDS011;746;48.688;9.428;2022-11-25T08:34:51;15.87;;;13.63;;
1509;SDS011;746;48.688;9.428;2022-11-25T08:37:13;15.83;;;13.70;;
1509;SDS011;746;48.688;9.428;2022-11-25T08:39:34;16.40;;;12.77;;
1509;SDS011;746;48.688;9.428;2022-11-25T08:42:11;15.97;;;13.30;;
1509;SDS011;746;48.688;9.428;2022-11-25T08:44:33;13.47;;;12.07;;
1509;SDS011;746;48.688;9.428;2022-11-25T08:46:54;14.43;;;12.23;;
1509;SDS011;746;48.688;9.428;2022-11-25T08:49:17;16.87;;;13.93;;
1509;SDS011;746;48.688;9.428;2022-11-25T08:51:39;15.10;;;12.13;;
1509;SDS011;746;48.688;9.428;2022-11-25T08:54:00;16.47;;;13.47;;
1509;SDS011;746;48.688;9.428;2022-11-25T08:56:23;15.63;;;13.47;;
1509;SDS011;746;48.688;9.428;2022-11-25T08:58:45;14.80;;;12.50;;
1509;SDS011;746;48.688;9.428;2022-11-25T09:01:07;15.37;;;11.47;;
1509;SDS011;746;48.688;9.428;2022-11-25T09:03:30;13.30;;;11.27;;
1509;SDS011;746;48.688;9.428;2022-11-25T09:05:53;13.80;;;11.53;;
1509;SDS011;746;48.688;9.428;2022-11-25T09:08:14;13.27;;;11.23;;
1509;SDS011;746;48.688;9.428;2022-11-25T09:10:35;14.03;;;11.33;;
1509;SDS011;746;48.688;9.428;2022-11-25T09:12:57;14.03;;;11.83;;
1509;SDS011;746;48.688;9.428;2022-11-25T09:15:19;14.27;;;11.40;;
1509;SDS011;746;48.688;9.428;2022-11-25T09:17:40;14.17;;;12.30;;
1509;SDS011;746;48.688;9.428;2022-11-25T09:20:01;15.37;;;11.13;;
1509;SDS011;746;48.688;9.428;2022-11-25T09:22:25;18.27;;;14.20;;
1509;SDS011;746;48.688;9.428;2022-11-25T09:24:46;20.57;;;17.13;;
1509;SDS011;746;48.688;9.428;2022-11-25T09:27:08;20.73;;;16.97;;
1509;SDS011;746;48.688;9.428;2022-11-25T09:29:29;21.00;;;18.03;;
1509;SDS011;746;48.688;9.428;2022-11-25T09:31:50;19.73;;;15.60;;
1509;SDS011;746;48.688;9.428;2022-11-25T09:34:13;13.67;;;12.23;;
1509;SDS011;746;48.688;9.428;2022-11-25T09:36:35;15.90;;;13.07;;
1509;SDS011;746;48.688;9.428;2022-11-25T09:38:57;15.10;;;11.30;;
1509;SDS011;746;48.688;9.428;2022-11-25T09:41:25;13.57;;;10.27;;
1509;SDS011;746;48.688;9.428;2022-11-25T09:44:08;13.27;;;10.60;;
1509;SDS011;746;48.688;9.428;2022-11-25T09:46:56;13.43;;;10.03;;
1509;SDS011;746;48.688;9.428;2022-11-25T09:49:26;10.20;;;8.10;;
1509;SDS011;746;48.688;9.428;2022-11-25T09:51:53;9.37;;;8.40;;
1509;SDS011;746;48.688;9.428;2022-11-25T09:54:19;9.67;;;8.17;;
1509;SDS011;746;48.688;9.428;2022-11-25T09:56:42;10.77;;;8.67;;
1509;SDS011;746;48.688;9.428;2022-11-25T09:59:06;11.93;;;8.40;;
1509;SDS011;746;48.688;9.428;2022-11-25T10:01:30;12.40;;;8.50;;
1509;SDS011;746;48.688;9.428;2022-11-25T10:03:52;9.40;;;7.60;;
1509;SDS011;746;48.688;9.428;2022-11-25T10:06:15;11.30;;;8.00;;
1509;SDS011;746;48.688;9.428;2022-11-25T10:08:38;9.20;;;7.53;;
1509;SDS011;746;48.688;9.428;2022-11-25T10:11:02;10.07;;;7.73;;
1509;SDS011;746;48.688;9.428;2022-11-25T10:13:28;8.20;;;7.10;;
1509;SDS011;746;48.688;9.428;2022-11-25T10:15:52;10.70;;;7.73;;
1509;SDS011;746;48.688;9.428;2022-11-25T10:18:16;20.53;;;14.13;;
1509;SDS011;746;48.688;9.428;2022-11-25T10:20:39;16.00;;;11.50;;
1509;SDS011;746;48.688;9.428;2022-11-25T10:23:02;10.33;;;8.50;;
1509;SDS011;746;48.688;9.428;2022-11-25T10:25:24;8.33;;;7.50;;
1509;SDS011;746;48.688;9.428;2022-11-25T10:27:48;9.73;;;8.73;;
1509;SDS011;746;48.688;9.428;2022-11-25T10:30:12;10.40;;;8.03;;
1509;SDS011;746;48.688;9.428;2022-11-25T10:32:37;10.37;;;9.27;;
1509;SDS011;746;48.688;9.428;2022-11-25T10:35:00;10.30;;;9.20;;
1509;SDS011;746;48.688;9.428;2022-11-25T10:37:25;8.87;;;7.67;;
1509;SDS011;746;48.688;9.428;2022-11-25T10:39:47;10.63;;;6.93;;
1509;SDS011;746;48.688;9.428;2022-11-25T10:42:11;7.50;;;6.80;;
1509;SDS011;746;48.688;9.428;2022-11-25T10:44:39;8.23;;;6.67;;
1509;SDS011;746;48.688;9.428;2022-11-25T10:47:05;9.47;;;6.60;;
1509;SDS011;746;48.688;9.428;2022-11-25T10:49:35;7.80;;;6.27;;
1509;SDS011;746;48.688;9.428;2022-11-25T10:51:58;9.13;;;7.17;;
1509;SDS011;746;48.688;9.428;2022-11-25T10:54:20;7.87;;;6.97;;
1509;SDS011;746;48.688;9.428;2022-11-25T10:56:48;7.67;;;6.10;;
1509;SDS011;746;48.688;9.428;2022-11-25T10:59:12;11.83;;;9.50;;
1509;SDS011;746;48.688;9.428;2022-11-25T11:01:34;11.93;;;9.20;;
1509;SDS011;746;48.688;9.428;2022-11-25T11:04:01;11.07;;;9.27;;
1509;SDS011;746;48.688;9.428;2022-11-25T11:06:28;10.23;;;9.03;;
1509;SDS011;746;48.688;9.428;2022-11-25T11:08:49;9.43;;;7.97;;
1509;SDS011;746;48.688;9.428;2022-11-25T11:11:15;10.10;;;8.00;;
1509;SDS011;746;48.688;9.428;2022-11-25T11:13:37;8.87;;;7.73;;
1509;SDS011;746;48.688;9.428;2022-11-25T11:15:58;8.30;;;7.20;;
1509;SDS011;746;48.688;9.428;2022-11-25T11:18:22;8.90;;;7.10;;
1509;SDS011;746;48.688;9.428;2022-11-25T11:20:44;9.03;;;8.10;;
1509;SDS011;746;48.688;9.428;2022-11-25T11:23:07;8.97;;;7.60;;
1509;SDS011;746;48.688;9.428;2022-11-25T11:25:30;9.27;;;7.13;;
1509;SDS011;746;48.688;9.428;2022-11-25T11:27:52;8.80;;;7.07;;
1509;SDS011;746;48.688;9.428;2022-11-25T11:30:14;7.90;;;7.10;;
1509;SDS011;746;48.688;9.428;2022-11-25T11:32:36;7.50;;;6.70;;
1509;SDS011;746;48.688;9.428;2022-11-25T11:35:02;8.87;;;6.80;;
1509;SDS011;746;48.688;9.428;2022-11-25T11:37:32;7.63;;;6.40;;
1509;SDS011;746;48.688;9.428;2022-11-25T11:39:59;7.87;;;7.13;;
1509;SDS011;746;48.688;9.428;2022-11-25T11:42:23;9.53;;;8.17;;
1509;SDS011;746;48.688;9.428;2022-11-25T11:44:54;8.63;;;7.63;;
1509;SDS011;746;48.688;9.428;2022-11-25T11:47:19;10.73;;;7.73;;
1509;SDS011;746;48.688;9.428;2022-11-25T11:49:49;9.47;;;8.27;;
1509;SDS011;746;48.688;9.428;2022-11-25T11:52:19;9.00;;;7.80;;
1509;SDS011;746;48.688;9.428;2022-11-25T11:54:43;7.90;;;7.10;;
1509;SDS011;746;48.688;9.428;2022-11-25T11:57:06;8.17;;;7.37;;
1509;SDS011;746;48.688;9.428;2022-11-25T11:59:40;9.27;;;7.83;;
1509;SDS011;746;48.688;9.428;2022-11-25T12:02:11;8.67;;;7.40;;
1509;SDS011;746;48.688;9.428;2022-11-25T12:04:35;10.40;;;8.30;;
1509;SDS011;746;48.688;9.428;2022-11-25T12:07:01;9.63;;;8.00;;
1509;SDS011;746;48.688;9.428;2022-11-25T12:09:24;8.70;;;7.80;;
1509;SDS011;746;48.688;9.428;2022-11-25T12:11:49;11.07;;;8.57;;
1509;SDS011;746;48.688;9.428;2022-11-25T12:14:24;11.40;;;9.00;;
1509;SDS011;746;48.688;9.428;2022-11-25T12:16:51;9.50;;;8.53;;
1509;SDS011;746;48.688;9.428;2022-11-25T12:19:14;12.23;;;9.47;;
1509;SDS011;746;48.688;9.428;2022-11-25T12:21:38;11.10;;;10.00;;
1509;SDS011;746;48.688;9.428;2022-11-25T12:24:02;10.20;;;8.47;;
1509;SDS011;746;48.688;9.428;2022-11-25T12:26:27;9.97;;;8.90;;
1509;SDS011;746;48.688;9.428;2022-11-25T12:28:51;9.60;;;8.63;;
1509;SDS011;746;48.688;9.428;2022-11-25T12:31:15;8.63;;;7.73;;
1509;SDS011;746;48.688;9.428;2022-11-25T12:33:39;9.67;;;8.30;;
1509;SDS011;746;48.688;9.428;2022-11-25T12:36:03;9.50;;;7.63;;
1509;SDS011;746;48.688;9.428;2022-11-25T12:38:29;9.50;;;7.90;;
1509;SDS011;746;48.688;9.428;2022-11-25T12:40:59;9.50;;;7.87;;
1509;SDS011;746;48.688;9.428;2022-11-25T12:43:24;8.63;;;7.77;;
1509;SDS011;746;48.688;9.428;2022-11-25T12:45:47;12.13;;;8.10;;
1509;SDS011;746;48.688;9.428;2022-11-25T12:48:11;10.90;;;7.77;;
1509;SDS011;746;48.688;9.428;2022-11-25T12:50:42;8.77;;;7.77;;
1509;SDS011;746;48.688;9.428;2022-11-25T12:53:06;8.50;;;7.13;;
1509;SDS011;746;48.688;9.428;2022-11-25T12:55:31;8.80;;;7.20;;
1509;SDS011;746;48.688;9.428;2022-11-25T13:00:34;7.77;;;6.43;;
1509;SDS011;746;48.688;9.428;2022-11-25T13:03:14;9.27;;;7.40;;
1509;SDS011;746;48.688;9.428;2022-11-25T13:05:44;8.57;;;6.83;;
1509;SDS011;746;48.688;9.428;2022-11-25T13:08:14;8.13;;;6.60;;
1509;SDS011;746;48.688;9.428;2022-11-25T13:10:42;9.07;;;6.60;;
1509;SDS011;746;48.688;9.428;2022-11-25T13:13:12;7.23;;;6.50;;
1509;SDS011;746;48.688;9.428;2022-11-25T13:15:40;9.43;;;7.40;;
1509;SDS011;746;48.688;9.428;2022-11-25T13:18:03;7.97;;;7.23;;
1509;SDS011;746;48.688;9.428;2022-11-25T13:20:37;9.47;;;8.20;;
1509;SDS011;746;48.688;9.428;2022-11-25T13:23:00;8.57;;;7.53;;
1509;SDS011;746;48.688;9.428;2022-11-25T13:25:23;9.10;;;7.43;;
1509;SDS011;746;48.688;9.428;2022-11-25T13:27:55;12.10;;;9.10;;
1509;SDS011;746;48.688;9.428;2022-11-25T13:32:54;10.60;;;8.50;;
1509;SDS011;746;48.688;9.428;2022-11-25T13:37:57;12.17;;;10.10;;
1509;SDS011;746;48.688;9.428;2022-11-25T13:40:18;16.20;;;13.90;;
1509;SDS011;746;48.688;9.428;2022-11-25T13:42:41;18.40;;;13.67;;
1509;SDS011;746;48.688;9.428;2022-11-25T13:45:03;16.70;;;13.40;;
1509;SDS011;746;48.688;9.428;2022-11-25T13:47:30;17.23;;;12.17;;
1509;SDS011;746;48.688;9.428;2022-11-25T13:49:53;13.03;;;11.13;;
1509;SDS011;746;48.688;9.428;2022-11-25T13:52:25;12.60;;;10.10;;
1509;SDS011;746;48.688;9.428;2022-11-25T13:54:48;16.87;;;11.33;;
1509;SDS011;746;48.688;9.428;2022-11-25T13:57:25;12.67;;;10.23;;
1509;SDS011;746;48.688;9.428;2022-11-25T13:59:48;14.90;;;10.90;;
1509;SDS011;746;48.688;9.428;2022-11-25T14:04:54;13.23;;;11.90;;
1509;SDS011;746;48.688;9.428;2022-11-25T14:07:21;11.90;;;10.60;;
1509;SDS011;746;48.688;9.428;2022-11-25T14:09:55;13.57;;;11.13;;
1509;SDS011;746;48.688;9.428;2022-11-25T14:12:28;14.87;;;11.63;;
1509;SDS011;746;48.688;9.428;2022-11-25T14:14:58;14.70;;;11.80;;
1509;SDS011;746;48.688;9.428;2022-11-25T14:17:27;14.87;;;11.23;;
1509;SDS011;746;48.688;9.428;2022-11-25T14:19:59;14.33;;;12.83;;
1509;SDS011;746;48.688;9.428;2022-11-25T14:22:27;15.07;;;12.47;;
1509;SDS011;746;48.688;9.428;2022-11-25T14:24:58;17.60;;;13.97;;
1509;SDS011;746;48.688;9.428;2022-11-25T14:27:21;20.60;;;14.37;;
1509;SDS011;746;48.688;9.428;2022-11-25T14:29:45;13.53;;;12.03;;
1509;SDS011;746;48.688;9.428;2022-11-25T14:32:11;15.67;;;12.37;;
1509;SDS011;746;48.688;9.428;2022-11-25T14:34:35;15.30;;;11.37;;
1509;SDS011;746;48.688;9.428;2022-11-25T14:37:03;19.80;;;12.23;;
1509;SDS011;746;48.688;9.428;2022-11-25T14:39:29;15.77;;;11.27;;
1509;SDS011;746;48.688;9.428;2022-11-25T14:41:53;13.30;;;10.60;;
1509;SDS011;746;48.688;9.428;2022-11-25T14:44:16;16.93;;;10.83;;
1509;SDS011;746;48.688;9.428;2022-11-25T14:46:49;14.90;;;13.37;;
1509;SDS011;746;48.688;9.428;2022-11-25T14:49:10;18.20;;;15.70;;
1509;SDS011;746;48.688;9.428;2022-11-25T14:51:50;20.23;;;14.43;;
1509;SDS011;746;48.688;9.428;2022-11-25T14:54:14;18.80;;;16.77;;
1509;SDS011;746;48.688;9.428;2022-11-25T14:56:35;11.57;;;9.07;;